Station Historical Data
Daily Summary for May 7, 2017 Units:  English    Metric   Both
« Previous Day
Next Day »
Daily Weekly Monthly Yearly Custom
  High: Low: Average:
Temperature: 52.2 °F 38.7 °F 43.7 °F
Dew Point: 41.0 °F 31.7 °F 36 °F
Humidity: 93% 56% 75%
Wind Speed: 12.0mph 0.0mph 4.6mph
Wind Gust: 20.0mph - -
Wind- - WNW
Pressure: 29.89 in 29.52 in -
Precipitation: 0.00 in    
Historical Graphs
 
 
Tabular Data for May 7, 2017
Time Temperature Dew Point Pressure Wind Wind Speed Wind Gust Humidity Rainfall Rate (Hourly)
00:04 40.3 °F 38.4 °F 29.52 in WNW 3.0 mph 9.0 mph 93% 0.03 in
00:09 40.3 °F 38.4 °F 29.52 in NW 5.0 mph 12.0 mph 93% 0.03 in
00:14 40.3 °F 38.4 °F 29.52 in NE 5.0 mph 7.0 mph 93% 0.03 in
00:19 40.3 °F 38.4 °F 29.52 in WNW 4.0 mph 8.0 mph 93% 0.02 in
00:24 40.3 °F 38.4 °F 29.53 in NW 4.0 mph 9.0 mph 93% 0.02 in
00:29 40.3 °F 38.4 °F 29.53 in NW 4.0 mph 9.0 mph 93% 0.02 in
00:34 40.4 °F 38.5 °F 29.52 in NW 4.0 mph 9.0 mph 93% 0.02 in
00:39 40.3 °F 38.4 °F 29.53 in NNW 2.0 mph 7.0 mph 93% 0.02 in
00:44 40.4 °F 38.5 °F 29.53 in NNW 3.0 mph 8.0 mph 93% 0.01 in
00:49 40.3 °F 38.4 °F 29.53 in North 5.0 mph 8.0 mph 93% 0.01 in
00:54 40.2 °F 38.3 °F 29.53 in NW 6.0 mph 7.0 mph 93% 0.01 in
00:59 40.3 °F 38.4 °F 29.53 in NW 4.0 mph 10.0 mph 93% 0.01 in
01:04 40.3 °F 38.4 °F 29.53 in NW 4.0 mph 10.0 mph 93% 0.00 in
01:09 40.4 °F 38.5 °F 29.53 in WNW 3.0 mph 10.0 mph 93% 0.01 in
01:14 40.4 °F 38.5 °F 29.53 in NW 2.0 mph 8.0 mph 93% 0.01 in
01:19 40.4 °F 38.5 °F 29.54 in WNW 2.0 mph 5.0 mph 93% 0.01 in
01:24 40.5 °F 38.6 °F 29.53 in WNW 4.0 mph 6.0 mph 93% 0.01 in
01:29 40.5 °F 38.6 °F 29.53 in WNW 3.0 mph 7.0 mph 93% 0.01 in
01:34 40.5 °F 38.6 °F 29.54 in WNW 4.0 mph 8.0 mph 93% 0.02 in
01:39 40.5 °F 38.6 °F 29.54 in NW 1.0 mph 7.0 mph 93% 0.02 in
01:44 40.5 °F 38.6 °F 29.54 in North 3.0 mph 10.0 mph 93% 0.02 in
01:49 40.5 °F 38.6 °F 29.54 in WNW 6.0 mph 10.0 mph 93% 0.02 in
01:54 40.5 °F 38.6 °F 29.54 in WNW 3.0 mph 9.0 mph 93% 0.02 in
01:59 40.5 °F 38.6 °F 29.54 in WNW 4.0 mph 9.0 mph 93% 0.02 in
02:04 40.5 °F 38.6 °F 29.54 in WNW 4.0 mph 10.0 mph 93% 0.03 in
02:09 40.5 °F 38.4 °F 29.54 in NW 5.0 mph 10.0 mph 92% 0.02 in
02:14 40.6 °F 38.5 °F 29.54 in NW 5.0 mph 10.0 mph 92% 0.02 in
02:19 40.6 °F 38.5 °F 29.54 in NW 4.0 mph 10.0 mph 92% 0.02 in
02:24 40.6 °F 38.5 °F 29.54 in NW 7.0 mph 10.0 mph 92% 0.02 in
02:29 40.5 °F 38.4 °F 29.54 in NW 3.0 mph 12.0 mph 92% 0.02 in
02:34 40.5 °F 38.4 °F 29.54 in NW 6.0 mph 13.0 mph 92% 0.01 in
02:39 40.5 °F 38.4 °F 29.55 in West 6.0 mph 10.0 mph 92% 0.01 in
02:44 40.3 °F 38.2 °F 29.55 in NNW 12.0 mph 16.0 mph 92% 0.01 in
02:49 40.3 °F 38.2 °F 29.55 in NNE 10.0 mph 12.0 mph 92% 0.01 in
02:54 40.2 °F 38.1 °F 29.55 in NNE 7.0 mph 11.0 mph 92% 0.01 in
02:59 40.2 °F 38.1 °F 29.55 in NW 6.0 mph 16.0 mph 92% 0.01 in
03:04 40.2 °F 38.1 °F 29.55 in WNW 6.0 mph 16.0 mph 92% 0.00 in
03:09 40.3 °F 37.9 °F 29.55 in WNW 5.0 mph 11.0 mph 91% 0.01 in
03:14 40.3 °F 37.9 °F 29.56 in WNW 5.0 mph 10.0 mph 91% 0.01 in
03:19 40.4 °F 38.0 °F 29.56 in WNW 4.0 mph 9.0 mph 91% 0.01 in
03:24 40.3 °F 37.9 °F 29.56 in WNW 4.0 mph 9.0 mph 91% 0.01 in
03:29 40.2 °F 37.8 °F 29.56 in WNW 4.0 mph 12.0 mph 91% 0.01 in
03:34 40.2 °F 37.8 °F 29.57 in WNW 5.0 mph 12.0 mph 91% 0.01 in
03:39 40.1 °F 37.7 °F 29.57 in WNW 6.0 mph 16.0 mph 91% 0.01 in
03:44 40.2 °F 37.8 °F 29.57 in WNW 2.0 mph 15.0 mph 91% 0.01 in
03:49 40.1 °F 37.7 °F 29.58 in NW 5.0 mph 10.0 mph 91% 0.01 in
03:54 40.1 °F 37.7 °F 29.58 in WNW 2.0 mph 8.0 mph 91% 0.01 in
03:59 40.1 °F 37.7 °F 29.58 in WNW 4.0 mph 11.0 mph 91% 0.01 in
04:04 40.0 °F 37.6 °F 29.58 in NW 4.0 mph 11.0 mph 91% 0.01 in
04:09 39.9 °F 37.2 °F 29.58 in WNW 5.0 mph 9.0 mph 90% 0.00 in
04:14 39.8 °F 37.1 °F 29.58 in WNW 6.0 mph 8.0 mph 90% 0.01 in
04:19 39.8 °F 37.1 °F 29.58 in West 3.0 mph 8.0 mph 90% 0.01 in
04:24 39.8 °F 37.4 °F 29.59 in NW 5.0 mph 9.0 mph 91% 0.01 in
04:29 39.7 °F 37.0 °F 29.59 in NW 6.0 mph 10.0 mph 90% 0.02 in
04:34 39.6 °F 36.9 °F 29.59 in WNW 5.0 mph 13.0 mph 90% 0.02 in
04:39 39.6 °F 36.9 °F 29.60 in WNW 6.0 mph 13.0 mph 90% 0.03 in
04:44 39.5 °F 36.8 °F 29.60 in NW 5.0 mph 11.0 mph 90% 0.03 in
04:49 39.5 °F 37.1 °F 29.60 in NW 3.0 mph 9.0 mph 91% 0.03 in
04:54 39.5 °F 37.1 °F 29.60 in WNW 4.0 mph 11.0 mph 91% 0.04 in
04:59 39.4 °F 37.0 °F 29.60 in NW 7.0 mph 8.0 mph 91% 0.04 in
05:04 39.4 °F 37.0 °F 29.60 in WNW 5.0 mph 10.0 mph 91% 0.05 in
05:09 39.4 °F 37.0 °F 29.60 in WNW 5.0 mph 11.0 mph 91% 0.05 in
05:14 39.2 °F 36.8 °F 29.60 in WNW 6.0 mph 13.0 mph 91% 0.04 in
05:19 39.0 °F 36.6 °F 29.61 in WNW 2.0 mph 10.0 mph 91% 0.04 in
05:24 38.9 °F 36.5 °F 29.61 in NW 6.0 mph 9.0 mph 91% 0.04 in
05:29 38.8 °F 36.4 °F 29.61 in NW 6.0 mph 15.0 mph 91% 0.04 in
05:34 38.8 °F 36.4 °F 29.61 in NW 6.0 mph 12.0 mph 91% 0.04 in
05:39 38.8 °F 36.4 °F 29.61 in NW 5.0 mph 12.0 mph 91% 0.03 in
05:44 38.8 °F 36.1 °F 29.61 in NW 6.0 mph 13.0 mph 90% 0.03 in
05:49 38.8 °F 36.1 °F 29.62 in NW 5.0 mph 13.0 mph 90% 0.03 in
05:54 38.8 °F 36.1 °F 29.62 in NW 4.0 mph 12.0 mph 90% 0.02 in
05:59 38.9 °F 36.2 °F 29.62 in NW 4.0 mph 12.0 mph 90% 0.02 in
06:04 38.9 °F 36.2 °F 29.62 in NW 4.0 mph 10.0 mph 90% 0.01 in
06:09 39.0 °F 36.3 °F 29.63 in NW 5.0 mph 11.0 mph 90% 0.02 in
06:14 38.9 °F 36.2 °F 29.63 in West 8.0 mph 13.0 mph 90% 0.02 in
06:19 38.9 °F 36.2 °F 29.63 in NNW 5.0 mph 19.0 mph 90% 0.02 in
06:24 38.8 °F 36.1 °F 29.63 in WNW 5.0 mph 14.0 mph 90% 0.02 in
06:29 38.7 °F 35.7 °F 29.64 in WNW 4.0 mph 10.0 mph 89% 0.01 in
06:34 38.7 °F 35.7 °F 29.64 in WNW 4.0 mph 9.0 mph 89% 0.01 in
06:39 38.7 °F 35.7 °F 29.64 in NW 5.0 mph 12.0 mph 89% 0.01 in
06:44 38.8 °F 35.6 °F 29.64 in NW 6.0 mph 12.0 mph 88% 0.01 in
06:49 38.8 °F 35.6 °F 29.64 in NW 5.0 mph 11.0 mph 88% 0.01 in
06:54 38.8 °F 35.6 °F 29.65 in NW 4.0 mph 14.0 mph 88% 0.01 in
06:59 38.8 °F 35.6 °F 29.65 in NW 4.0 mph 10.0 mph 88% 0.01 in
07:04 39.0 °F 35.5 °F 29.65 in WNW 3.0 mph 13.0 mph 87% 0.01 in
07:09 39.1 °F 35.6 °F 29.65 in NW 5.0 mph 13.0 mph 87% 0.00 in
07:14 39.3 °F 35.5 °F 29.66 in NNW 4.0 mph 12.0 mph 86% 0.00 in
07:19 39.5 °F 35.4 °F 29.66 in NW 4.0 mph 10.0 mph 85% 0.00 in
07:24 39.7 °F 35.6 °F 29.66 in NW 4.0 mph 13.0 mph 85% 0.00 in
07:29 39.8 °F 35.4 °F 29.66 in NW 4.0 mph 11.0 mph 84% 0.00 in
07:34 39.7 °F 35.0 °F 29.66 in NW 5.0 mph 11.0 mph 83% 0.00 in
07:39 39.9 °F 35.2 °F 29.66 in NW 5.0 mph 11.0 mph 83% 0.00 in
07:44 40.0 °F 35.3 °F 29.66 in WNW 5.0 mph 10.0 mph 83% 0.00 in
07:49 40.0 °F 35.3 °F 29.67 in WNW 4.0 mph 10.0 mph 83% 0.00 in
07:54 40.2 °F 35.1 °F 29.67 in NW 5.0 mph 11.0 mph 82% 0.00 in
07:59 40.3 °F 34.9 °F 29.67 in NNW 2.0 mph 14.0 mph 81% 0.00 in
08:04 40.6 °F 35.2 °F 29.67 in NNW 2.0 mph 10.0 mph 81% 0.00 in
08:09 40.7 °F 35.0 °F 29.67 in NW 4.0 mph 10.0 mph 80% 0.00 in
08:14 40.8 °F 35.1 °F 29.67 in NW 4.0 mph 12.0 mph 80% 0.00 in
08:19 40.5 °F 34.8 °F 29.67 in NW 5.0 mph 14.0 mph 80% 0.00 in
08:24 40.3 °F 34.9 °F 29.68 in NNW 3.0 mph 14.0 mph 81% 0.00 in
08:29 40.1 °F 34.7 °F 29.68 in NNW 8.0 mph 10.0 mph 81% 0.00 in
08:34 40.1 °F 35.0 °F 29.68 in NW 5.0 mph 12.0 mph 82% 0.00 in
08:39 40.3 °F 35.2 °F 29.68 in WNW 6.0 mph 13.0 mph 82% 0.00 in
08:44 40.4 °F 35.0 °F 29.69 in WNW 6.0 mph 14.0 mph 81% 0.00 in
08:49 40.4 °F 35.0 °F 29.69 in WNW 6.0 mph 14.0 mph 81% 0.00 in
08:54 40.4 °F 34.7 °F 29.69 in West 10.0 mph 13.0 mph 80% 0.00 in
08:59 40.8 °F 35.1 °F 29.69 in WNW 5.0 mph 14.0 mph 80% 0.00 in
09:04 40.9 °F 34.9 °F 29.69 in NNW 3.0 mph 13.0 mph 79% 0.00 in
09:09 41.3 °F 35.3 °F 29.69 in West 3.0 mph 11.0 mph 79% 0.00 in
09:14 41.9 °F 35.9 °F 29.69 in NW 5.0 mph 12.0 mph 79% 0.00 in
09:19 41.8 °F 35.4 °F 29.70 in WNW 5.0 mph 12.0 mph 78% 0.00 in
09:24 41.6 °F 35.2 °F 29.70 in WNW 5.0 mph 13.0 mph 78% 0.00 in
09:29 41.4 °F 34.7 °F 29.70 in WNW 5.0 mph 13.0 mph 77% 0.00 in
09:34 40.9 °F 34.6 °F 29.70 in WNW 6.0 mph 11.0 mph 78% 0.00 in
09:39 40.8 °F 34.5 °F 29.70 in West 11.0 mph 12.0 mph 78% 0.00 in
09:44 40.8 °F 34.8 °F 29.71 in WNW 7.0 mph 12.0 mph 79% 0.00 in
09:49 40.9 °F 34.2 °F 29.70 in NNW 5.0 mph 15.0 mph 77% 0.00 in
09:54 41.5 °F 34.8 °F 29.70 in NW 3.0 mph 11.0 mph 77% 0.00 in
09:59 41.7 °F 34.7 °F 29.71 in NNW 6.0 mph 11.0 mph 76% 0.00 in
10:04 41.4 °F 34.7 °F 29.72 in WNW 5.0 mph 10.0 mph 77% 0.00 in
10:09 41.4 °F 35.1 °F 29.72 in NNW 4.0 mph 10.0 mph 78% 0.00 in
10:14 41.4 °F 35.1 °F 29.72 in NW 3.0 mph 11.0 mph 78% 0.00 in
10:19 41.9 °F 35.5 °F 29.72 in WNW 5.0 mph 11.0 mph 78% 0.00 in
10:24 42.1 °F 35.4 °F 29.72 in WNW 4.0 mph 9.0 mph 77% 0.00 in
10:29 42.5 °F 34.8 °F 29.72 in WNW 5.0 mph 10.0 mph 74% 0.00 in
10:34 42.4 °F 34.0 °F 29.72 in WNW 10.0 mph 13.0 mph 72% 0.00 in
10:39 42.6 °F 33.9 °F 29.72 in WNW 7.0 mph 13.0 mph 71% 0.00 in
10:44 43.0 °F 34.2 °F 29.72 in WNW 7.0 mph 10.0 mph 71% 0.00 in
10:49 43.2 °F 34.1 °F 29.72 in West 2.0 mph 9.0 mph 70% 0.00 in
10:54 43.2 °F 34.1 °F 29.72 in WNW 3.0 mph 11.0 mph 70% 0.00 in
10:59 43.3 °F 34.2 °F 29.72 in WNW 3.0 mph 10.0 mph 70% 0.00 in
11:04 43.8 °F 35.0 °F 29.72 in WNW 4.0 mph 12.0 mph 71% 0.00 in
11:09 44.0 °F 34.1 °F 29.72 in West 6.0 mph 11.0 mph 68% 0.00 in
11:14 44.2 °F 33.6 °F 29.73 in WNW 6.0 mph 15.0 mph 66% 0.00 in
11:19 44.5 °F 33.5 °F 29.73 in WNW 6.0 mph 15.0 mph 65% 0.00 in
11:24 44.4 °F 33.4 °F 29.73 in WNW 6.0 mph 13.0 mph 65% 0.00 in
11:29 44.0 °F 32.6 °F 29.73 in West 6.0 mph 13.0 mph 64% 0.00 in
11:34 43.9 °F 33.3 °F 29.73 in WNW 4.0 mph 11.0 mph 66% 0.00 in
11:39 43.8 °F 33.2 °F 29.73 in West 4.0 mph 8.0 mph 66% 0.00 in
11:44 43.9 °F 34.0 °F 29.73 in WNW 4.0 mph 10.0 mph 68% 0.00 in
11:49 44.0 °F 34.1 °F 29.73 in WNW 5.0 mph 11.0 mph 68% 0.00 in
11:54 44.0 °F 34.5 °F 29.73 in WNW 5.0 mph 11.0 mph 69% 0.00 in
11:59 43.8 °F 33.9 °F 29.73 in West 7.0 mph 11.0 mph 68% 0.00 in
12:04 43.9 °F 34.0 °F 29.73 in WSW 4.0 mph 11.0 mph 68% 0.00 in
12:09 44.0 °F 34.5 °F 29.73 in WSW 6.0 mph 11.0 mph 69% 0.00 in
12:14 44.2 °F 34.3 °F 29.73 in WNW 5.0 mph 12.0 mph 68% 0.00 in
12:19 44.5 °F 34.6 °F 29.74 in WNW 6.0 mph 12.0 mph 68% 0.00 in
12:24 44.5 °F 34.2 °F 29.73 in WNW 6.0 mph 11.0 mph 67% 0.00 in
12:29 44.5 °F 34.2 °F 29.74 in West 6.0 mph 12.0 mph 67% 0.00 in
12:34 44.5 °F 34.6 °F 29.74 in WNW 3.0 mph 10.0 mph 68% 0.00 in
12:39 44.5 °F 34.2 °F 29.73 in WSW 3.0 mph 11.0 mph 67% 0.00 in
12:44 44.5 °F 35.0 °F 29.74 in WSW 3.0 mph 8.0 mph 69% 0.00 in
12:49 44.5 °F 35.7 °F 29.74 in West 4.0 mph 8.0 mph 71% 0.00 in
12:54 44.4 °F 35.6 °F 29.74 in West 4.0 mph 8.0 mph 71% 0.00 in
12:59 44.5 °F 35.7 °F 29.74 in West 4.0 mph 8.0 mph 71% 0.00 in
13:04 44.9 °F 36.1 °F 29.74 in WSW 3.0 mph 7.0 mph 71% 0.00 in
13:09 45.6 °F 36.0 °F 29.74 in NW 3.0 mph 8.0 mph 69% 0.00 in
13:14 45.9 °F 35.9 °F 29.74 in West 4.0 mph 9.0 mph 68% 0.00 in
13:19 46.2 °F 35.8 °F 29.74 in WNW 5.0 mph 11.0 mph 67% 0.00 in
13:24 46.5 °F 36.1 °F 29.74 in WNW 5.0 mph 11.0 mph 67% 0.00 in
13:29 46.9 °F 36.1 °F 29.74 in WNW 7.0 mph 10.0 mph 66% 0.00 in
13:34 47.3 °F 36.5 °F 29.74 in NW 7.0 mph 10.0 mph 66% 0.00 in
13:39 47.6 °F 36.4 °F 29.74 in WSW 4.0 mph 11.0 mph 65% 0.00 in
13:44 47.4 °F 36.2 °F 29.74 in West 8.0 mph 11.0 mph 65% 0.00 in
13:49 47.2 °F 36.0 °F 29.74 in West 7.0 mph 10.0 mph 65% 0.00 in
13:54 47.3 °F 36.1 °F 29.74 in WNW 6.0 mph 10.0 mph 65% 0.00 in
13:59 47.0 °F 36.2 °F 29.74 in WNW 5.0 mph 10.0 mph 66% 0.00 in
14:04 47.4 °F 36.6 °F 29.74 in WNW 5.0 mph 11.0 mph 66% 0.00 in
14:09 47.6 °F 36.4 °F 29.74 in WNW 4.0 mph 11.0 mph 65% 0.00 in
14:14 47.4 °F 35.8 °F 29.75 in WNW 5.0 mph 12.0 mph 64% 0.00 in
14:19 47.3 °F 36.1 °F 29.74 in West 6.0 mph 9.0 mph 65% 0.00 in
14:24 47.5 °F 36.3 °F 29.75 in West 3.0 mph 8.0 mph 65% 0.00 in
14:29 47.5 °F 36.3 °F 29.75 in WNW 4.0 mph 10.0 mph 65% 0.00 in
14:34 47.6 °F 36.4 °F 29.75 in NNW 5.0 mph 7.0 mph 65% 0.00 in
14:39 47.8 °F 36.6 °F 29.75 in West 7.0 mph 9.0 mph 65% 0.00 in
14:44 48.0 °F 36.4 °F 29.75 in West 9.0 mph 9.0 mph 64% 0.00 in
14:49 47.6 °F 36.4 °F 29.75 in WNW 3.0 mph 9.0 mph 65% 0.00 in
14:54 47.7 °F 36.1 °F 29.75 in West 5.0 mph 9.0 mph 64% 0.00 in
14:59 48.0 °F 37.9 °F 29.75 in West 3.0 mph 7.0 mph 68% 0.00 in
15:04 48.0 °F 39.4 °F 29.75 in WSW 4.0 mph 9.0 mph 72% 0.00 in
15:09 48.0 °F 39.4 °F 29.75 in WSW 5.0 mph 11.0 mph 72% 0.00 in
15:14 47.7 °F 39.8 °F 29.75 in West 5.0 mph 10.0 mph 74% 0.00 in
15:19 47.3 °F 39.1 °F 29.75 in SW 4.0 mph 9.0 mph 73% 0.00 in
15:24 47.5 °F 39.3 °F 29.75 in WSW 6.0 mph 12.0 mph 73% 0.00 in
15:29 48.0 °F 40.5 °F 29.75 in WSW 6.0 mph 12.0 mph 75% 0.00 in
15:34 47.8 °F 39.9 °F 29.75 in WSW 3.0 mph 12.0 mph 74% 0.00 in
15:39 47.3 °F 39.4 °F 29.75 in WSW 9.0 mph 14.0 mph 74% 0.00 in
15:44 46.9 °F 39.4 °F 29.75 in WSW 6.0 mph 12.0 mph 75% 0.00 in
15:49 46.7 °F 39.5 °F 29.76 in WSW 7.0 mph 15.0 mph 76% 0.00 in
15:54 47.3 °F 40.1 °F 29.76 in SW 6.0 mph 15.0 mph 76% 0.00 in
15:59 47.2 °F 39.7 °F 29.76 in WSW 6.0 mph 12.0 mph 75% 0.00 in
16:04 47.6 °F 40.4 °F 29.76 in WSW 5.0 mph 12.0 mph 76% 0.00 in
16:09 47.6 °F 39.7 °F 29.76 in WSW 4.0 mph 10.0 mph 74% 0.00 in
16:14 47.6 °F 40.1 °F 29.76 in WSW 5.0 mph 12.0 mph 75% 0.00 in
16:19 47.6 °F 40.1 °F 29.76 in SW 7.0 mph 8.0 mph 75% 0.00 in
16:24 47.7 °F 40.5 °F 29.76 in SW 5.0 mph 10.0 mph 76% 0.00 in
16:29 48.0 °F 40.5 °F 29.76 in WSW 5.0 mph 10.0 mph 75% 0.00 in
16:34 48.9 °F 41.0 °F 29.76 in WSW 3.0 mph 8.0 mph 74% 0.00 in
16:39 49.6 °F 40.9 °F 29.76 in West 3.0 mph 7.0 mph 72% 0.00 in
16:44 49.8 °F 38.5 °F 29.76 in WNW 4.0 mph 11.0 mph 65% 0.00 in
16:49 50.5 °F 37.5 °F 29.76 in WNW 5.0 mph 11.0 mph 61% 0.00 in
16:54 50.8 °F 37.4 °F 29.76 in West 5.0 mph 9.0 mph 60% 0.00 in
16:59 52.2 °F 38.3 °F 29.76 in NNE 3.0 mph 12.0 mph 59% 0.00 in
17:04 51.2 °F 36.5 °F 29.76 in NW 4.0 mph 10.0 mph 57% 0.00 in
17:09 50.8 °F 37.8 °F 29.77 in North 7.0 mph 11.0 mph 61% 0.00 in
17:14 50.5 °F 36.7 °F 29.77 in WNW 4.0 mph 12.0 mph 59% 0.00 in
17:19 50.8 °F 36.5 °F 29.77 in WNW 5.0 mph 14.0 mph 58% 0.00 in
17:24 50.4 °F 35.7 °F 29.77 in North 2.0 mph 17.0 mph 57% 0.00 in
17:29 50.2 °F 36.0 °F 29.77 in WNW 5.0 mph 12.0 mph 58% 0.00 in
17:34 50.1 °F 36.3 °F 29.77 in West 7.0 mph 12.0 mph 59% 0.00 in
17:39 50.2 °F 36.0 °F 29.77 in NNW 9.0 mph 15.0 mph 58% 0.00 in
17:44 50.2 °F 36.0 °F 29.78 in West 6.0 mph 15.0 mph 58% 0.00 in
17:49 49.9 °F 35.3 °F 29.78 in WNW 5.0 mph 14.0 mph 57% 0.00 in
17:54 49.8 °F 35.6 °F 29.78 in WNW 7.0 mph 14.0 mph 58% 0.00 in
17:59 50.1 °F 35.4 °F 29.78 in WNW 8.0 mph 15.0 mph 57% 0.00 in
18:04 50.1 °F 35.9 °F 29.78 in WNW 8.0 mph 15.0 mph 58% 0.00 in
18:09 50.7 °F 35.6 °F 29.78 in WNW 7.0 mph 13.0 mph 56% 0.00 in
18:14 50.0 °F 35.4 °F 29.79 in WNW 7.0 mph 14.0 mph 57% 0.00 in
18:19 49.4 °F 34.3 °F 29.79 in NW 6.0 mph 14.0 mph 56% 0.00 in
18:24 49.3 °F 34.7 °F 29.79 in NNW 3.0 mph 13.0 mph 57% 0.00 in
18:29 49.1 °F 34.5 °F 29.79 in NW 5.0 mph 13.0 mph 57% 0.00 in
18:34 49.1 °F 34.1 °F 29.79 in NNW 5.0 mph 12.0 mph 56% 0.00 in
18:39 49.2 °F 34.2 °F 29.79 in NW 4.0 mph 14.0 mph 56% 0.00 in
18:44 49.3 °F 35.1 °F 29.80 in North 5.0 mph 12.0 mph 58% 0.00 in
18:49 49.4 °F 34.8 °F 29.80 in NNW 12.0 mph 15.0 mph 57% 0.00 in
18:54 49.2 °F 34.6 °F 29.80 in NW 7.0 mph 16.0 mph 57% 0.00 in
18:59 48.9 °F 34.8 °F 29.80 in NW 7.0 mph 18.0 mph 58% 0.00 in
19:04 48.8 °F 35.1 °F 29.81 in NW 6.0 mph 18.0 mph 59% 0.00 in
19:09 48.9 °F 34.3 °F 29.81 in NW 5.0 mph 12.0 mph 57% 0.00 in
19:14 48.8 °F 34.2 °F 29.81 in WNW 4.0 mph 18.0 mph 57% 0.00 in
19:19 48.7 °F 35.0 °F 29.82 in NW 4.0 mph 13.0 mph 59% 0.00 in
19:24 48.3 °F 34.2 °F 29.82 in NW 7.0 mph 20.0 mph 58% 0.00 in
19:29 47.8 °F 34.2 °F 29.82 in NW 8.0 mph 20.0 mph 59% 0.00 in
19:34 47.4 °F 34.2 °F 29.82 in NW 7.0 mph 16.0 mph 60% 0.00 in
19:39 46.9 °F 34.1 °F 29.83 in NW 6.0 mph 13.0 mph 61% 0.00 in
19:44 46.6 °F 33.9 °F 29.83 in NW 4.0 mph 11.0 mph 61% 0.00 in
19:49 46.5 °F 34.2 °F 29.83 in NW 4.0 mph 14.0 mph 62% 0.00 in
19:54 46.5 °F 34.6 °F 29.83 in NW 5.0 mph 14.0 mph 63% 0.00 in
19:59 46.4 °F 34.5 °F 29.83 in West 4.0 mph 7.0 mph 63% 0.00 in
20:04 46.2 °F 34.3 °F 29.84 in NW 2.0 mph 10.0 mph 63% 0.00 in
20:09 45.9 °F 34.4 °F 29.84 in WNW 1.0 mph 7.0 mph 64% 0.00 in
20:14 45.8 °F 34.3 °F 29.84 in West 4.0 mph 11.0 mph 64% 0.00 in
20:19 45.8 °F 34.3 °F 29.84 in WNW 5.0 mph 9.0 mph 64% 0.00 in
20:24 45.9 °F 34.4 °F 29.85 in WNW 4.0 mph 9.0 mph 64% 0.00 in
20:29 46.1 °F 34.6 °F 29.85 in NW 5.0 mph 10.0 mph 64% 0.00 in
20:34 46.1 °F 34.6 °F 29.85 in NW 4.0 mph 10.0 mph 64% 0.00 in
20:39 46.0 °F 34.5 °F 29.85 in NW 3.0 mph 11.0 mph 64% 0.00 in
20:44 46.0 °F 34.1 °F 29.85 in NW 4.0 mph 12.0 mph 63% 0.00 in
20:49 46.0 °F 34.1 °F 29.86 in NW 5.0 mph 12.0 mph 63% 0.00 in
20:54 46.0 °F 34.1 °F 29.86 in NW 6.0 mph 12.0 mph 63% 0.00 in
20:59 45.9 °F 34.4 °F 29.86 in NNW 6.0 mph 12.0 mph 64% 0.00 in
21:04 45.7 °F 34.6 °F 29.86 in NW 8.0 mph 11.0 mph 65% 0.00 in
21:09 45.6 °F 34.9 °F 29.86 in North 6.0 mph 8.0 mph 66% 0.00 in
21:14 45.4 °F 34.3 °F 29.87 in NW 5.0 mph 9.0 mph 65% 0.00 in
21:19 45.2 °F 34.1 °F 29.87 in WNW 2.0 mph 10.0 mph 65% 0.00 in
21:24 45.0 °F 33.9 °F 29.87 in NW 3.0 mph 10.0 mph 65% 0.00 in
21:29 44.7 °F 34.0 °F 29.87 in NW 2.0 mph 6.0 mph 66% 0.00 in
21:34 44.8 °F 34.1 °F 29.87 in NW 3.0 mph 7.0 mph 66% 0.00 in
21:39 44.8 °F 33.7 °F 29.87 in NW 3.0 mph 7.0 mph 65% 0.00 in
21:44 44.8 °F 34.1 °F 29.87 in NW 1.0 mph 6.0 mph 66% 0.00 in
21:49 44.8 °F 34.1 °F 29.87 in NNW 1.0 mph 6.0 mph 66% 0.00 in
21:54 44.6 °F 33.9 °F 29.88 in NW 3.0 mph 6.0 mph 66% 0.00 in
21:59 44.5 °F 33.8 °F 29.88 in NW 2.0 mph 5.0 mph 66% 0.00 in
22:04 44.5 °F 33.8 °F 29.88 in NW 2.0 mph 4.0 mph 66% 0.00 in
22:09 44.4 °F 34.1 °F 29.88 in NNW 4.0 mph 4.0 mph 67% 0.00 in
22:14 44.4 °F 34.1 °F 29.88 in Calm   4.0 mph 67% 0.00 in
22:19 44.4 °F 34.1 °F 29.88 in NW 3.0 mph 6.0 mph 67% 0.00 in
22:24 44.4 °F 34.1 °F 29.88 in NW 2.0 mph 6.0 mph 67% 0.00 in
22:29 44.4 °F 33.7 °F 29.88 in NNW 2.0 mph 4.0 mph 66% 0.00 in
22:39 44.4 °F 33.7 °F 29.88 in NW 2.0 mph 3.0 mph 66% 0.00 in
22:44 44.3 °F 33.3 °F 29.88 in Calm   5.0 mph 65% 0.00 in
22:49 44.4 °F 33.4 °F 29.88 in Calm   4.0 mph 65% 0.00 in
22:54 44.3 °F 33.3 °F 29.88 in Calm   3.0 mph 65% 0.00 in
22:59 44.2 °F 33.2 °F 29.88 in NNW 1.0 mph 3.0 mph 65% 0.00 in
23:04 44.1 °F 33.5 °F 29.88 in Calm     66% 0.00 in
23:09 44.1 °F 33.1 °F 29.88 in Calm     65% 0.00 in
23:14 44.1 °F 33.5 °F 29.88 in Calm     66% 0.00 in
23:19 43.9 °F 34.0 °F 29.88 in NNW 1.0 mph 2.0 mph 68% 0.00 in
23:24 43.7 °F 33.5 °F 29.88 in NNW 1.0 mph 2.0 mph 67% 0.00 in
23:29 43.5 °F 33.6 °F 29.88 in Calm     68% 0.00 in
23:34 43.6 °F 33.4 °F 29.88 in NNW 2.0 mph 3.0 mph 67% 0.00 in
23:39 43.6 °F 33.4 °F 29.88 in Calm   2.0 mph 67% 0.00 in
23:44 43.5 °F 31.7 °F 29.89 in NNW 1.0 mph 6.0 mph 63% 0.00 in
23:49 43.5 °F 31.7 °F 29.88 in NNW 2.0 mph 3.0 mph 63% 0.00 in
23:54 43.3 °F 31.9 °F 29.88 in Calm   1.0 mph 64% 0.00 in
23:59 43.2 °F 31.8 °F 29.88 in Calm   4.0 mph 64% 0.00 in
Buffalo, New York, USA
Compliments of Weather Underground - 2.5 mb